Home > Products > Valid Products > TAF

000
FTUS44 KMEG 252300
TAFTUP
TAF
KTUP 252333Z 2600/2624 00000KT P6SM SKC
      TEMPO 2608/2612 2SM BR
     FM261500 22005KT P6SM SCT050=



000
FTUS44 KMEG 252300
TAFJBR
TAF
KJBR 252333Z 2600/2624 00000KT P6SM SKC
      TEMPO 2609/2612 3SM BR
     FM261400 19007KT P6SM SCT050=



000
FTUS44 KMEG 252300
TAFMKL
TAF
KMKL 252333Z 2600/2624 00000KT P6SM SKC
     FM260700 00000KT 3SM BR SKC
      TEMPO 2608/2612 1/2SM FG VV002
     FM261300 20005KT P6SM SCT050=



000
FTUS44 KMEG 252300
TAFMEM
TAF
KMEM 252333Z 2600/2624 00000KT P6SM SKC
      TEMPO 2609/2612 5SM BR
     FM261500 20007KT P6SM SCT050=



000
FTUS44 KMEG 252000 AAA
TAFMEM
TAF AMD
KMEM 252050Z 2521/2618 24006KT P6SM FEW050
     FM260000 00000KT P6SM SKC
      TEMPO 2609/2612 5SM BR
     FM261500 20007KT P6SM SCT050=



000
FTUS44 KMEG 251700
TAFJBR
TAF
KJBR 251720Z 2518/2618 26007KT P6SM SCT050
     FM260000 00000KT P6SM SKC
      TEMPO 2609/2612 3SM BR
     FM261400 19007KT P6SM SCT050=



000
FTUS44 KMEG 251700
TAFMEM
TAF
KMEM 251720Z 2518/2618 27006KT P6SM SCT050
     FM260000 00000KT P6SM SKC
      TEMPO 2609/2612 5SM BR
     FM261500 20007KT P6SM SCT050=



000
FTUS44 KMEG 251700
TAFMKL
TAF
KMKL 251720Z 2518/2618 28007KT P6SM SCT050
     FM260000 00000KT P6SM SKC
     FM260700 00000KT 3SM BR SKC
      TEMPO 2608/2612 1/2SM FG VV002
     FM261300 20005KT P6SM SCT050=



000
FTUS44 KMEG 251700
TAFTUP
TAF
KTUP 251720Z 2518/2618 29008KT P6SM SCT050
     FM260000 00000KT P6SM SKC
      TEMPO 2608/2612 2SM BR
     FM261500 22005KT P6SM SCT050=



000
FTUS44 KMEG 251700
TAFTUP
TAF
KTUP 251720Z 2518/2618 29008KT P6SM SCT050
     FM260000 00000KT P6SM SKC
      TEMPO 2608/2612 2SM BR
     FM261500 22005KT P6SM SCT050=



000
FTUS44 KMEG 251700
TAFMEM
TAF
KMEM 251720Z 2518/2618 27006KT P6SM SCT050
     FM260000 00000KT P6SM SKC
      TEMPO 2609/2612 5SM BR
     FM261500 20007KT P6SM SCT050=



000
FTUS44 KMEG 251700
TAFJBR
TAF
KJBR 251720Z 2518/2618 26007KT P6SM SCT050
     FM260000 00000KT P6SM SKC
      TEMPO 2609/2612 3SM BR
     FM261400 19007KT P6SM SCT050=



000
FTUS44 KMEG 251700
TAFMKL
TAF
KMKL 251720Z 2518/2618 28007KT P6SM SCT050
     FM260000 00000KT P6SM SKC
     FM260700 00000KT 3SM BR SKC
      TEMPO 2608/2612 1/2SM FG VV002
     FM261300 20005KT P6SM SCT050=



000
FTUS44 KMEG 251400 AAA
TAFMEM
TAF AMD
KMEM 251459Z 2515/2612 26007KT P6SM SCT050
     FM260000 21003KT P6SM SKC
      TEMPO 2608/2612 3SM BR=



000
FTUS44 KMEG 251100
TAFMKL
TAF
KMKL 251120Z 2512/2612 00000KT P6SM SCT050
      TEMPO 2512/2514 3SM BR
     FM251400 26007KT P6SM SCT045
     FM260000 00000KT P6SM SKC
      TEMPO 2608/2612 1/2SM FG=



000
FTUS44 KMEG 251100
TAFMEM
TAF
KMEM 251120Z 2512/2612 VRB03KT P6SM SKC
     FM251400 26007KT P6SM SCT050
     FM260000 21003KT P6SM SKC
      TEMPO 2608/2612 3SM BR=



000
FTUS44 KMEG 251100
TAFTUP
TAF
KTUP 251120Z 2512/2612 00000KT P6SM SKC
      TEMPO 2512/2514 4SM BR
     FM251400 30005KT P6SM SCT050
     FM260000 00000KT P6SM SKC
      TEMPO 2608/2612 1SM BR=



000
FTUS44 KMEG 251100
TAFJBR
TAF
KJBR 251120Z 2512/2612 VRB03KT P6SM SKC
     FM251400 26007KT P6SM SCT050
     FM260000 00000KT P6SM SKC
      TEMPO 2608/2612 1SM BR=



000
FTUS44 KMEG 251100
TAFMEM
TAF
KMEM 251120Z 2512/2612 VRB03KT P6SM SKC
     FM251400 26007KT P6SM SCT050
     FM260000 21003KT P6SM SKC
      TEMPO 2608/2612 3SM BR=



000
FTUS44 KMEG 251100
TAFMKL
TAF
KMKL 251120Z 2512/2612 00000KT P6SM SCT050
      TEMPO 2512/2514 3SM BR
     FM251400 26007KT P6SM SCT045
     FM260000 00000KT P6SM SKC
      TEMPO 2608/2612 1/2SM FG=



000
FTUS44 KMEG 251100
TAFTUP
TAF
KTUP 251120Z 2512/2612 00000KT P6SM SKC
      TEMPO 2512/2514 4SM BR
     FM251400 30005KT P6SM SCT050
     FM260000 00000KT P6SM SKC
      TEMPO 2608/2612 1SM BR=



000
FTUS44 KMEG 251100
TAFJBR
TAF
KJBR 251120Z 2512/2612 VRB03KT P6SM SKC
     FM251400 26007KT P6SM SCT050
     FM260000 00000KT P6SM SKC
      TEMPO 2608/2612 1SM BR=



000
FTUS44 KMEG 250800 AAA
TAFMEM
TAF AMD
KMEM 250855Z 2509/2606 00000KT P6SM SKC
     FM251400 26007KT P6SM SCT050
     FM260000 21003KT P6SM SKC=



000
FTUS44 KMEG 250800 AAA
TAFMKL
TAF AMD
KMKL 250815Z 2508/2606 00000KT P6SM FEW250
      TEMPO 2508/2512 3SM BR
     FM251400 25007KT P6SM SCT040
     FM260000 00000KT P6SM SKC=



000
FTUS44 KMEG 250500
TAFTUP
TAF
KTUP 250520Z 2506/2606 00000KT P6SM FEW250
      TEMPO 2509/2512 3SM BR
     FM251400 29005KT P6SM SCT050
     FM260000 00000KT P6SM SKC=



000
FTUS44 KMEG 250500
TAFMEM
TAF
KMEM 250520Z 2506/2606 00000KT P6SM FEW250
     FM251400 25007KT P6SM SCT050
     FM260000 21003KT P6SM SKC=



000
FTUS44 KMEG 250500
TAFJBR
TAF
KJBR 250520Z 2506/2606 25003KT P6SM FEW250
     FM251400 26007KT P6SM SCT040
     FM260000 00000KT P6SM SKC=



000
FTUS44 KMEG 250500
TAFMKL
TAF
KMKL 250520Z 2506/2606 00000KT 4SM BR FEW250
      TEMPO 2508/2512 1 1/2SM BR
     FM251400 25007KT P6SM SCT040
     FM260000 00000KT P6SM SKC=



000
FTUS44 KMEG 250200 AAA
TAFMEM
TAF AMD
KMEM 250258Z 2503/2524 00000KT P6SM FEW250
     FM251400 25007KT P6SM SCT050=



000
FTUS44 KMEG 242300
TAFJBR
TAF
KJBR 242329Z 2500/2524 00000KT P6SM SKC
     FM251400 26007KT P6SM SCT040=



000
FTUS44 KMEG 242300
TAFTUP
TAF
KTUP 242329Z 2500/2524 00000KT P6SM SKC
     FM251400 29005KT P6SM SCT050=



000
FTUS44 KMEG 242300
TAFMKL
TAF
KMKL 242329Z 2500/2524 00000KT P6SM SKC
      TEMPO 2508/2512 3SM BR
     FM251400 25007KT P6SM SCT040=



000
FTUS44 KMEG 242300
TAFMEM
TAF
KMEM 242329Z 2500/2524 00000KT P6SM SKC
     FM251400 25007KT P6SM SCT050=



000
FTUS44 KMEG 242000 AAA
TAFMEM
TAF AMD
KMEM 242050Z 2421/2518 31004KT P6SM SKC
     FM250000 00000KT P6SM SKC
     FM251400 25007KT P6SM SCT050=



000
FTUS44 KMEG 241700
TAFMKL
TAF
KMKL 241721Z 2418/2518 30005KT P6SM SCT040
     FM250000 00000KT P6SM SKC
      TEMPO 2508/2512 3SM BR
     FM251400 25007KT P6SM SCT040=



000
FTUS44 KMEG 241700
TAFJBR
TAF
KJBR 241721Z 2418/2518 23005KT P6SM SCT040
     FM250000 00000KT P6SM SKC
     FM251400 26007KT P6SM SCT040=



000
FTUS44 KMEG 241700
TAFTUP
TAF
KTUP 241721Z 2418/2518 01004KT P6SM SCT050
     FM250000 00000KT P6SM SKC
     FM251400 29005KT P6SM SCT050=



000
FTUS44 KMEG 241700
TAFMEM
TAF
KMEM 241721Z 2418/2518 29005KT P6SM SCT050
     FM250000 00000KT P6SM SKC
     FM251400 25007KT P6SM SCT050=



000
FTUS44 KMEG 241400 AAA
TAFMEM
TAF AMD
KMEM 241458Z 2415/2512 29005KT P6SM SCT050
     FM250000 00000KT P6SM SKC=



000
FTUS44 KMEG 241100 AAA
TAFMKL
TAF AMD
KMKL 241159Z 2412/2512 00000KT P6SM SCT040
     FM241400 VRB03KT P6SM BKN040
     FM241800 30005KT P6SM SCT250
     FM250000 00000KT P6SM SKC=



000
FTUS44 KMEG 241100 CCB
TAFJBR
TAF COR
KJBR 241127Z 2412/2512 00000KT P6SM BKN040
     FM242000 23005KT P6SM SCT250
     FM250000 VRB02KT P6SM SCT250=



000
FTUS44 KMEG 241100 CCA
TAFJBR
TAF COR
KJBR 241126Z 2412/2512 00000KT P6SM BKN040
     FM242000 23005KT P6SM SCT250
     FM250000 VRB02KT P6SM SKC=



000
FTUS44 KMEG 241100
TAFMKL
TAF
KMKL 241125Z 2412/2512 00000KT P6SM SCT040
      TEMPO 2412/2414 2SM BR
     FM241400 VRB03KT P6SM BKN040
     FM241800 30005KT P6SM SCT250
     FM250000 00000KT P6SM SKC=



000
FTUS44 KMEG 241100
TAFMEM
TAF
KMEM 241125Z 2412/2512 VRB03KT P6SM BKN045
     FM241800 29004KT P6SM SCT250
     FM250000 00000KT P6SM SCT250=



000
FTUS44 KMEG 241100
TAFJBR
TAF
KJBR 241125Z 2412/2512 00000KT P6SM BKN040
     FM242000 23005KT P6SM SCT250=



000
FTUS44 KMEG 241100
TAFTUP
TAF
KTUP 241125Z 2412/2512 00000KT P6SM SKC
     FM241700 01005KT P6SM SCT040
     FM250000 00000KT P6SM SCT250=



000
FTUS44 KMEG 240900 AAA
TAFMEM
TAF AMD
KMEM 240904Z 2409/2506 00000KT P6SM SKC
     FM241200 VRB03KT P6SM SCT040
     FM241800 29004KT P6SM SCT250
     FM250000 00000KT P6SM SCT250=



000
FTUS44 KMEG 240500
TAFJBR
TAF
KJBR 240520Z 2406/2506 00000KT P6SM SKC
      TEMPO 2406/2410 3SM BR BKN040
     FM241000 00000KT P6SM BKN040
     FM242000 24004KT P6SM SCT250=



000
FTUS44 KMEG 240500
TAFTUP
TAF
KTUP 240520Z 2406/2506 00000KT P6SM BKN150 OVC250
     FM240900 00000KT P6SM SKC
     FM241700 36005KT P6SM SCT040
     FM250000 00000KT P6SM SCT250=



000
FTUS44 KMEG 240500
TAFMKL
TAF
KMKL 240520Z 2406/2506 00000KT P6SM SKC
      TEMPO 2408/2412 3SM BR
     FM241300 VRB03KT P6SM SCT040
     FM241900 30005KT P6SM SCT250
     FM250000 00000KT P6SM SKC=



000
FTUS44 KMEG 240500
TAFMEM
TAF
KMEM 240520Z 2406/2506 00000KT P6SM SKC
     FM241200 VRB03KT P6SM SCT040
     FM241800 29004KT P6SM SCT250
     FM250000 00000KT P6SM SCT250=



000
FTUS44 KMEG 240200 AAA
TAFMEM
TAF AMD
KMEM 240258Z 2403/2424 00000KT P6SM BKN150 OVC250
     FM240400 00000KT P6SM SCT080
     FM241300 34004KT P6SM SCT040=



000
FTUS44 KMEG 240200 AAA
TAFMEM
TAF AMD
KMEM 240258Z 2403/2424 00000KT P6SM BKN150 OVC250
     FM240400 00000KT P6SM SCT080
     FM241300 34004KT P6SM SCT040=



000
FTUS44 KMEG 232300
TAFMKL
TAF
KMKL 232330Z 2400/2424 36003KT P6SM BKN150 OVC250
     FM240400 00000KT P6SM SCT080
     FM241400 33005KT P6SM SCT040=



000
FTUS44 KMEG 232300
TAFJBR
TAF
KJBR 232330Z 2400/2424 00000KT P6SM BKN150
     FM240200 00000KT P6SM BKN080
     FM241000 00000KT P6SM BKN040
     FM242000 24004KT P6SM SCT250=



000
FTUS44 KMEG 232300
TAFTUP
TAF
KTUP 232330Z 2400/2424 00000KT P6SM BKN150 OVC250
     FM240600 00000KT P6SM SCT080
     FM241700 03005KT P6SM SCT040=



000
FTUS44 KMEG 232300
TAFMEM
TAF
KMEM 232330Z 2400/2424 36003KT P6SM BKN150 OVC250
     FM240300 00000KT P6SM SCT080
     FM241300 34004KT P6SM SCT040=



000
FTUS44 KMEG 232000 AAA
TAFMEM
TAF AMD
KMEM 232051Z 2321/2418 36003KT P6SM BKN150 OVC250
     FM240300 00000KT P6SM SCT080
     FM240600 00000KT P6SM SKC=



000
FTUS44 KMEG 231700
TAFMKL
TAF
KMKL 231720Z 2318/2418 36003KT P6SM BKN150 OVC250
     FM240400 00000KT P6SM SCT080
     FM240700 00000KT P6SM SKC
      TEMPO 2409/2413 3SM BR FEW002=



000
FTUS44 KMEG 231700
TAFTUP
TAF
KTUP 231720Z 2318/2418 02004KT P6SM BKN150 OVC250
     FM240600 00000KT P6SM SCT080
     FM240900 00000KT P6SM SKC
     FM241500 03005KT P6SM SKC=



000
FTUS44 KMEG 231700
TAFMEM
TAF
KMEM 231720Z 2318/2418 36003KT P6SM BKN150 OVC250
     FM240300 00000KT P6SM SCT080
     FM240600 00000KT P6SM SKC=



000
FTUS44 KMEG 231700
TAFJBR
TAF
KJBR 231720Z 2318/2418 04003KT P6SM BKN150 OVC250
     FM240100 00000KT P6SM SCT080
     FM240400 00000KT P6SM SKC=



000
FTUS44 KMEG 231400 AAA
TAFMEM
TAF AMD
KMEM 231457Z 2315/2412 10004KT P6SM FEW150 BKN250
     FM231700 02004KT P6SM OVC150
     FM240300 00000KT P6SM SCT150=



000
FTUS44 KMEG 231400 AAA
TAFMEM
TAF AMD
KMEM 231457Z 2315/2412 10004KT P6SM FEW150 BKN250
     FM231700 02004KT P6SM OVC150
     FM240300 00000KT P6SM SCT150=



000
FTUS44 KMEG 231100
TAFMEM
TAF
KMEM 231120Z 2312/2412 09004KT P6SM FEW150 BKN250
     FM231700 02004KT P6SM BKN150 BKN250
     FM240300 00000KT P6SM SCT150=



000
FTUS44 KMEG 231100
TAFJBR
TAF
KJBR 231120Z 2312/2412 VRB03KT P6SM SCT150 BKN250
     FM231600 VRB03KT P6SM SCT100 BKN150 BKN250
     FM240100 00000KT P6SM SCT150=



000
FTUS44 KMEG 231100
TAFMKL
TAF
KMKL 231120Z 2312/2412 VRB03KT P6SM FEW150 BKN250
     FM231900 35003KT P6SM BKN150 BKN250
     FM240400 00000KT P6SM SCT150
      TEMPO 2409/2412 3SM BR FEW002=



000
FTUS44 KMEG 231100
TAFTUP
TAF
KTUP 231120Z 2312/2412 05005KT P6SM FEW150 BKN250
     FM232100 02003KT P6SM BKN150 BKN250
     FM240600 00000KT P6SM SCT150=



000
FTUS44 KMEG 230900 AAA
TAFMEM
TAF AMD
KMEM 230900Z 2309/2406 06006KT P6SM SCT250
     FM231200 09004KT P6SM FEW150 BKN250
     FM231700 01006KT P6SM BKN150 BKN250
     FM240200 00000KT P6SM SCT150=



000
FTUS44 KMEG 230800 AAA
TAFMKL
TAF AMD
KMKL 230822Z 2308/2406 00000KT 6SM BR SKC
      TEMPO 2308/2312 2SM BR
     FM231200 VRB03KT P6SM BKN250
     FM231800 35003KT P6SM BKN150 BKN250=



000
FTUS44 KMEG 230500
TAFJBR
TAF
KJBR 230524Z 2306/2406 05003KT P6SM SKC
     FM231200 08005KT P6SM BKN150 BKN250
     FM231800 VRB03KT P6SM SCT100 BKN150 BKN250
     FM240000 00000KT P6SM SCT100=



000
FTUS44 KMEG 230500
TAFTUP
TAF
KTUP 230524Z 2306/2406 04005KT P6SM SKC
     FM231500 05005KT P6SM BKN250
     FM240000 02002KT P6SM BKN150 BKN250=



000
FTUS44 KMEG 230500
TAFMEM
TAF
KMEM 230524Z 2306/2406 06004KT P6SM SKC
     FM231200 09005KT P6SM BKN250
     FM231800 01003KT P6SM BKN150 BKN250
     FM240100 02003KT P6SM SCT100=



000
FTUS44 KMEG 230500
TAFMKL
TAF
KMKL 230524Z 2306/2406 00000KT P6SM SKC
     FM231200 VRB03KT P6SM BKN250
     FM231800 35003KT P6SM BKN150 BKN250=



000
FTUS44 KMEG 230200 AAA
TAFMEM
TAF AMD
KMEM 230258Z 2303/2324 06004KT P6SM SKC
     FM231200 09005KT P6SM BKN250
     FM231800 02003KT P6SM BKN150 BKN250=



    US Dept of Commerce
    National Oceanic and Atmospheric Administration
    National Weather Service
    1325 East West Highway
    Silver Spring, MD 20910
    Page Author: NWS Internet Services Team
Disclaimer
Information Quality
Credits
Glossary
Privacy Policy
Freedom of Information Act (FOIA)
About Us
Career Opportunities